KELM

Elmira / Corning Regional Airport

Elmira/Corning, New York, USA
METAR KELM 211953Z 00000KT 8SM OVC021 04/01 A3008 RMK AO2 SLP198 T00440011
Observed Flight Rules
Jan-21 @ 19:53 UTC (26 minutes ago) Marginal Visual Flight Rules
Wind Visibility Clouds
Calm 8 miles
  • Overcast at 2,100' AGL
Temperatures Readings
Current 4°C / 39°F
Dewpoint 1°C / 34°F
Humidity 81%
Altimeter 30.08" Hg
Pressure 1019.8 hPa
Elevation 302
METAR KELM 211953Z 00000KT 8SM OVC021 04/01 A3008 RMK AO2 SLP198 T00440011
Observed Flight Rules
Jan-21 @ 19:53 UTC
(26 minutes ago)
MVFR
Wind Visibility
Calm 8 miles
Clouds
  • Overcast at 2,100' AGL
Temperature Dewpoint
4°C / 39°F 1°C / 34°F
Humidity Altimeter Pressure
81% 30.08" Hg 1019.8 hPa